Time;durP1;ratioP1;P1;durP2;ratioP2;P2;SDS_P1;SDS_P2;PMS_P1;PMS_P2;Temp;Humidity;BMP_temperature;BMP_pressure;BME280_temperature;BME280_humidity;BME280_pressure;Samples;Min_cycle;Max_cycle;Signal;HPM_P1;HPM_P2
2023/11/12 00:02:07;;;;;;;11.47;10.60;;;5.90;99.90;;;;;;4896373;29;20203;-78
2023/11/12 00:04:35;;;;;;;10.67;9.87;;;5.90;99.90;;;;;;4884210;29;20667;-78
2023/11/12 00:07:02;;;;;;;11.23;10.23;;;5.90;99.90;;;;;;4899026;29;20218;-78
2023/11/12 00:09:29;;;;;;;10.97;10.07;;;5.90;99.90;;;;;;4893370;29;20243;-78
2023/11/12 00:11:56;;;;;;;10.60;9.90;;;5.90;99.90;;;;;;4901647;29;20218;-78
2023/11/12 00:14:24;;;;;;;10.47;9.80;;;5.90;99.90;;;;;;4893984;29;20218;-79
2023/11/12 00:16:52;;;;;;;11.40;10.40;;;5.90;99.90;;;;;;4898191;29;20663;-78
2023/11/12 00:19:19;;;;;;;11.23;10.43;;;5.80;99.90;;;;;;4899359;29;20203;-79
2023/11/12 00:21:47;;;;;;;11.13;10.43;;;5.80;99.90;;;;;;4902887;29;20205;-79
2023/11/12 00:24:17;;;;;;;11.77;10.87;;;5.80;99.90;;;;;;4900390;29;20203;-78
2023/11/12 00:26:44;;;;;;;11.23;10.43;;;5.80;99.90;;;;;;4901153;29;20712;-78
2023/11/12 00:29:11;;;;;;;12.03;11.10;;;5.90;99.90;;;;;;4890067;29;20227;-78
2023/11/12 00:31:38;;;;;;;12.03;11.07;;;5.90;99.90;;;;;;4896961;29;20198;-78
2023/11/12 00:34:06;;;;;;;12.40;11.40;;;5.90;99.90;;;;;;4894336;29;20310;-78
2023/11/12 00:36:33;;;;;;;11.27;10.47;;;5.90;99.90;;;;;;4886250;29;20312;-79
2023/11/12 00:39:00;;;;;;;11.53;10.70;;;5.90;99.90;;;;;;4896963;29;20203;-78
2023/11/12 00:41:26;;;;;;;11.63;10.73;;;5.90;99.90;;;;;;4896250;29;20345;-78
2023/11/12 00:43:56;;;;;;;11.07;10.27;;;5.90;99.90;;;;;;4900639;29;20239;-78
2023/11/12 00:46:24;;;;;;;11.53;10.73;;;5.90;99.90;;;;;;4902800;29;20223;-78
2023/11/12 00:48:51;;;;;;;11.33;10.53;;;5.90;99.90;;;;;;4898593;29;20229;-79
2023/11/12 00:51:19;;;;;;;11.37;10.60;;;5.90;99.90;;;;;;4898245;29;20205;-79
2023/11/12 00:53:46;;;;;;;11.57;10.67;;;5.90;99.90;;;;;;4889076;29;20723;-78
2023/11/12 00:56:13;;;;;;;11.00;10.30;;;5.90;99.90;;;;;;4894368;29;20233;-79
2023/11/12 00:58:39;;;;;;;11.60;10.80;;;5.90;99.90;;;;;;4897585;29;20206;-78
2023/11/12 01:01:07;;;;;;;11.90;11.03;;;5.90;99.90;;;;;;4901790;29;20206;-78
2023/11/12 01:03:34;;;;;;;11.63;10.83;;;5.80;99.90;;;;;;4901728;29;20300;-79
2023/11/12 01:06:02;;;;;;;11.70;10.90;;;5.90;99.90;;;;;;4899137;29;20231;-78
2023/11/12 01:08:31;;;;;;;11.53;10.77;;;5.90;99.90;;;;;;4898041;29;20238;-78
2023/11/12 01:10:58;;;;;;;11.10;10.40;;;5.90;99.90;;;;;;4897303;29;20667;-79
2023/11/12 01:13:26;;;;;;;11.50;10.60;;;5.90;99.90;;;;;;4896909;29;20242;-78
2023/11/12 01:15:53;;;;;;;11.20;10.50;;;6.00;99.90;;;;;;4895682;29;20680;-78
2023/11/12 01:18:20;;;;;;;11.47;10.67;;;6.00;99.90;;;;;;4883961;29;20206;-78
2023/11/12 01:20:47;;;;;;;11.37;10.50;;;6.00;99.90;;;;;;4903957;29;20210;-78
2023/11/12 01:23:16;;;;;;;10.90;10.20;;;6.00;99.90;;;;;;4898858;29;20296;-78
2023/11/12 01:25:45;;;;;;;11.33;10.57;;;6.00;99.90;;;;;;4898453;29;20231;-78
2023/11/12 01:28:11;;;;;;;11.47;10.67;;;6.00;99.90;;;;;;4900515;29;20223;-79
2023/11/12 01:30:40;;;;;;;10.90;10.10;;;6.00;99.90;;;;;;4899762;29;20285;-79
2023/11/12 01:33:07;;;;;;;10.67;9.97;;;6.00;99.90;;;;;;4894326;29;20203;-79
2023/11/12 01:35:34;;;;;;;10.57;9.87;;;6.00;99.90;;;;;;4895642;29;20680;-79
2023/11/12 01:38:01;;;;;;;10.80;10.10;;;6.00;99.90;;;;;;4899516;29;20722;-79
2023/11/12 01:40:28;;;;;;;11.97;10.93;;;6.00;99.90;;;;;;4885104;29;20281;-78
2023/11/12 01:42:56;;;;;;;11.27;10.37;;;6.00;99.90;;;;;;4903877;29;20680;-78
2023/11/12 01:45:24;;;;;;;12.00;11.10;;;6.00;99.90;;;;;;4901844;29;20209;-78
2023/11/12 01:47:51;;;;;;;11.33;10.53;;;6.00;99.90;;;;;;4889428;29;20237;-78
2023/11/12 01:50:20;;;;;;;11.70;10.80;;;6.00;99.90;;;;;;4892247;29;20209;-78
2023/11/12 01:52:49;;;;;;;11.93;11.03;;;6.00;99.90;;;;;;4895522;29;20226;-79
2023/11/12 01:55:19;;;;;;;11.40;10.60;;;6.00;99.90;;;;;;4892750;29;20219;-79
2023/11/12 01:57:47;;;;;;;11.80;10.90;;;6.00;99.90;;;;;;4891965;29;20252;-78
2023/11/12 02:00:16;;;;;;;11.27;10.57;;;6.00;99.90;;;;;;4899319;29;20214;-78
2023/11/12 02:02:44;;;;;;;11.17;10.47;;;5.90;99.90;;;;;;4885589;29;20206;-79
2023/11/12 02:05:11;;;;;;;10.90;10.20;;;5.90;99.90;;;;;;4897858;29;20207;-79
2023/11/12 02:07:42;;;;;;;10.63;9.93;;;5.80;99.90;;;;;;4895751;29;20609;-78
2023/11/12 02:10:13;;;;;;;11.10;10.30;;;5.80;99.90;;;;;;4883530;29;20239;-78
2023/11/12 02:12:44;;;;;;;10.87;10.17;;;5.80;99.90;;;;;;4889494;29;20240;-79
2023/11/12 02:15:13;;;;;;;11.10;10.40;;;5.60;99.90;;;;;;4898260;29;20205;-78
2023/11/12 02:17:44;;;;;;;10.73;10.03;;;5.60;99.90;;;;;;4896871;29;20231;-78
2023/11/12 02:20:14;;;;;;;10.67;9.97;;;5.50;99.90;;;;;;4891031;29;20234;-79
2023/11/12 02:22:41;;;;;;;10.90;10.30;;;5.30;99.90;;;;;;4899818;29;20210;-78
2023/11/12 02:25:10;;;;;;;11.00;10.20;;;5.20;99.90;;;;;;4896375;29;20582;-79
2023/11/12 02:27:38;;;;;;;10.73;10.00;;;5.10;99.90;;;;;;4894578;29;20305;-78
2023/11/12 02:30:08;;;;;;;11.00;10.30;;;5.00;99.90;;;;;;4884757;29;20658;-79
2023/11/12 02:32:36;;;;;;;10.90;10.20;;;5.00;99.90;;;;;;4879677;29;20204;-78
2023/11/12 02:35:03;;;;;;;11.13;10.33;;;4.90;99.90;;;;;;4880163;29;20210;-79
2023/11/12 02:37:30;;;;;;;10.73;10.03;;;4.70;99.90;;;;;;4886447;29;20253;-78
2023/11/12 02:39:57;;;;;;;10.90;10.20;;;4.60;99.90;;;;;;4886187;29;20205;-79
2023/11/12 02:42:29;;;;;;;10.97;10.17;;;4.50;99.90;;;;;;4900917;29;20274;-78
2023/11/12 02:44:56;;;;;;;11.30;10.50;;;4.50;99.90;;;;;;4896626;29;20285;-78
2023/11/12 02:47:23;;;;;;;11.07;10.33;;;4.40;99.90;;;;;;4901428;29;20276;-78
2023/11/12 02:50:16;;;;;;;11.60;10.77;;;4.30;99.90;;;;;;4900182;29;20217;-79
2023/11/12 02:52:43;;;;;;;11.23;10.53;;;4.20;99.90;;;;;;4884289;29;20210;-78
2023/11/12 02:55:10;;;;;;;11.10;10.30;;;4.10;99.90;;;;;;4898793;29;20674;-80
2023/11/12 02:57:38;;;;;;;12.10;11.00;;;4.00;99.90;;;;;;4882954;29;20225;-78
2023/11/12 03:00:08;;;;;;;11.40;10.50;;;3.90;99.90;;;;;;4900532;29;20622;-79
2023/11/12 03:02:35;;;;;;;12.10;11.00;;;3.80;99.90;;;;;;4900019;29;20223;-80
2023/11/12 03:05:02;;;;;;;12.30;11.37;;;3.80;99.90;;;;;;4904824;29;20204;-79
2023/11/12 03:07:30;;;;;;;11.10;10.30;;;3.80;99.90;;;;;;4900121;29;20284;-78
2023/11/12 03:09:57;;;;;;;11.37;10.57;;;3.70;99.90;;;;;;4899343;29;20220;-79
2023/11/12 03:12:24;;;;;;;11.33;10.53;;;3.50;99.90;;;;;;4894397;29;20212;-79
2023/11/12 03:14:52;;;;;;;11.93;11.03;;;3.50;99.90;;;;;;4900949;29;20275;-79
2023/11/12 03:17:19;;;;;;;11.77;10.87;;;3.50;99.90;;;;;;4900410;29;20735;-78
2023/11/12 03:19:49;;;;;;;11.67;10.87;;;3.40;99.90;;;;;;4890660;29;20200;-81
2023/11/12 03:22:26;;;;;;;11.57;10.73;;;3.30;99.90;;;;;;4892067;29;20253;-80
2023/11/12 03:24:53;;;;;;;12.10;11.20;;;3.40;99.90;;;;;;4900682;29;20637;-78
2023/11/12 03:27:20;;;;;;;10.93;10.13;;;3.30;99.90;;;;;;4895986;29;20229;-78
2023/11/12 03:29:47;;;;;;;11.60;10.80;;;3.20;99.90;;;;;;4902036;29;20213;-79
2023/11/12 03:32:15;;;;;;;11.97;11.07;;;3.20;99.90;;;;;;4887902;29;20210;-84
2023/11/12 03:34:42;;;;;;;11.90;11.00;;;3.30;99.90;;;;;;4877587;29;20236;-81
2023/11/12 03:37:09;;;;;;;12.03;11.13;;;3.30;99.90;;;;;;4891722;29;20776;-81
2023/11/12 03:39:36;;;;;;;12.07;11.23;;;3.20;99.90;;;;;;4877939;29;20270;-82
2023/11/12 03:42:09;;;;;;;11.87;11.07;;;3.20;99.90;;;;;;4891190;29;20208;-82
2023/11/12 03:44:35;;;;;;;12.03;11.03;;;3.20;99.90;;;;;;4891773;29;20204;-82
2023/11/12 03:47:06;;;;;;;11.73;10.80;;;3.20;99.90;;;;;;4883754;29;20229;-83
2023/11/12 03:49:35;;;;;;;11.60;10.80;;;3.20;99.90;;;;;;4891435;29;20220;-84
2023/11/12 03:52:02;;;;;;;11.67;10.57;;;3.10;99.90;;;;;;4894956;29;20221;-85
2023/11/12 03:54:29;;;;;;;12.47;11.27;;;3.10;99.90;;;;;;4891087;29;20204;-84
2023/11/12 03:56:56;;;;;;;11.93;11.13;;;3.20;99.90;;;;;;4882370;29;20230;-84
2023/11/12 03:59:23;;;;;;;11.60;10.80;;;3.20;99.90;;;;;;4887948;29;20205;-84
2023/11/12 04:01:51;;;;;;;11.70;10.90;;;3.20;99.90;;;;;;4884824;29;20205;-84
2023/11/12 04:04:18;;;;;;;10.10;9.40;;;3.20;99.90;;;;;;4882907;29;20296;-84
2023/11/12 04:06:46;;;;;;;11.07;10.27;;;3.30;99.90;;;;;;4892895;29;20251;-83
2023/11/12 04:09:13;;;;;;;10.87;10.17;;;3.30;99.90;;;;;;4887318;29;20229;-78
2023/11/12 04:11:41;;;;;;;10.70;10.00;;;3.40;99.90;;;;;;4880514;29;20210;-78
2023/11/12 04:14:08;;;;;;;11.00;10.23;;;3.40;99.90;;;;;;4890421;29;20204;-78
2023/11/12 04:16:36;;;;;;;10.83;10.10;;;3.50;99.90;;;;;;4895451;29;20220;-77
2023/11/12 04:19:03;;;;;;;10.77;10.07;;;3.50;99.90;;;;;;4892157;29;20703;-78
2023/11/12 04:21:30;;;;;;;11.37;10.60;;;3.50;99.90;;;;;;4891378;29;20211;-78
2023/11/12 04:23:59;;;;;;;11.40;10.70;;;3.50;99.90;;;;;;4895160;29;20412;-78
2023/11/12 04:26:27;;;;;;;11.20;10.40;;;3.50;99.90;;;;;;4890364;29;20278;-78
2023/11/12 04:28:54;;;;;;;10.97;10.20;;;3.50;99.90;;;;;;4886424;29;20297;-79
2023/11/12 04:31:21;;;;;;;11.33;10.43;;;3.50;99.90;;;;;;4888155;29;20209;-77
2023/11/12 04:33:48;;;;;;;11.33;10.63;;;3.50;99.90;;;;;;4895522;29;20213;-79
2023/11/12 04:36:14;;;;;;;11.00;10.27;;;3.40;99.90;;;;;;4892036;29;20220;-78
2023/11/12 04:38:41;;;;;;;11.00;10.20;;;3.50;99.90;;;;;;4891116;29;20215;-79
2023/11/12 04:41:11;;;;;;;10.87;9.97;;;3.40;99.90;;;;;;4873439;29;20196;-77
2023/11/12 04:43:39;;;;;;;11.07;10.27;;;3.30;99.90;;;;;;4873227;29;20292;-77
2023/11/12 04:46:07;;;;;;;11.23;10.43;;;3.30;99.90;;;;;;4880481;29;20209;-78
2023/11/12 04:48:34;;;;;;;10.97;10.07;;;3.30;99.90;;;;;;4882196;29;20300;-78
2023/11/12 04:51:02;;;;;;;11.53;10.73;;;3.20;99.90;;;;;;4883641;29;20201;-77
2023/11/12 04:53:29;;;;;;;12.47;11.57;;;3.20;99.90;;;;;;4875685;29;20205;-77
2023/11/12 04:55:56;;;;;;;11.37;10.47;;;3.30;99.90;;;;;;4876332;29;20206;-79
2023/11/12 04:58:24;;;;;;;11.67;10.87;;;3.30;99.90;;;;;;4882881;29;20204;-77
2023/11/12 05:00:52;;;;;;;11.90;11.10;;;3.30;99.90;;;;;;4883751;29;20194;-78
2023/11/12 05:03:21;;;;;;;11.63;10.77;;;3.20;99.90;;;;;;4886691;29;20589;-78
2023/11/12 05:05:48;;;;;;;11.03;10.27;;;3.20;99.90;;;;;;4886196;29;20201;-77
2023/11/12 05:08:15;;;;;;;11.83;10.77;;;3.30;99.90;;;;;;4886942;29;20589;-78
2023/11/12 05:10:42;;;;;;;11.10;10.30;;;3.30;99.90;;;;;;4874983;29;20221;-78
2023/11/12 05:13:09;;;;;;;10.93;10.23;;;3.30;99.90;;;;;;4893991;29;20227;-78
2023/11/12 05:15:37;;;;;;;10.93;10.23;;;3.30;99.90;;;;;;4876860;29;20260;-78
2023/11/12 05:18:05;;;;;;;11.47;10.67;;;3.30;99.90;;;;;;4896885;29;20291;-78
2023/11/12 05:20:33;;;;;;;11.30;10.50;;;3.30;99.90;;;;;;4886280;29;20684;-79
2023/11/12 05:23:01;;;;;;;11.77;10.87;;;3.30;99.90;;;;;;4892844;29;20201;-79
2023/11/12 05:25:28;;;;;;;11.53;10.73;;;3.30;99.90;;;;;;4889714;29;20201;-79
2023/11/12 05:27:54;;;;;;;10.47;9.87;;;3.30;99.90;;;;;;4874818;29;20221;-78
2023/11/12 05:30:23;;;;;;;11.67;10.97;;;3.20;99.90;;;;;;4900299;29;20216;-77
2023/11/12 05:32:51;;;;;;;10.93;10.23;;;3.20;99.90;;;;;;4889304;29;20277;-79
2023/11/12 05:38:52;;;;;;;11.10;10.40;;;3.30;99.90;;;;;;4880782;29;20234;-79
2023/11/12 05:41:19;;;;;;;11.17;10.47;;;3.40;99.90;;;;;;4887355;29;20197;-79
2023/11/12 05:43:46;;;;;;;10.40;9.70;;;3.40;99.90;;;;;;4893238;29;20254;-79
2023/11/12 05:46:17;;;;;;;10.83;10.13;;;3.40;99.90;;;;;;4894895;29;20201;-77
2023/11/12 05:48:45;;;;;;;11.07;10.37;;;3.50;99.90;;;;;;4897150;29;20600;-82
2023/11/12 05:51:12;;;;;;;10.70;9.90;;;3.50;99.90;;;;;;4874481;29;20205;-80
2023/11/12 05:53:39;;;;;;;11.23;10.43;;;3.50;99.90;;;;;;4880291;29;20205;-80
2023/11/12 05:56:06;;;;;;;10.80;10.20;;;3.50;99.90;;;;;;4880306;29;20205;-79
2023/11/12 05:58:44;;;;;;;11.00;10.17;;;3.60;99.90;;;;;;4884987;29;20197;-80
2023/11/12 06:01:14;;;;;;;10.80;10.00;;;3.60;99.90;;;;;;4883746;29;20202;-81
2023/11/12 06:03:41;;;;;;;10.80;10.10;;;3.60;99.90;;;;;;4889509;29;20207;-81
2023/11/12 06:06:16;;;;;;;10.57;9.80;;;3.60;99.90;;;;;;4889697;29;20220;-78
2023/11/12 06:08:42;;;;;;;11.17;10.27;;;3.60;99.90;;;;;;4890914;29;20689;-78
2023/11/12 06:11:11;;;;;;;11.83;11.13;;;3.70;99.90;;;;;;4879846;29;20201;-78
2023/11/12 06:13:38;;;;;;;10.47;9.77;;;3.70;99.90;;;;;;4892972;29;20665;-77
2023/11/12 06:16:05;;;;;;;10.90;10.10;;;3.70;99.90;;;;;;4892834;29;20233;-77
2023/11/12 06:18:32;;;;;;;11.77;10.97;;;3.60;99.90;;;;;;4894226;29;20205;-78
2023/11/12 06:21:00;;;;;;;11.10;10.40;;;3.60;99.90;;;;;;4897729;29;20200;-78
2023/11/12 06:23:28;;;;;;;11.20;10.50;;;3.60;99.90;;;;;;4892853;29;20200;-78
2023/11/12 06:25:55;;;;;;;10.80;10.10;;;3.60;99.90;;;;;;4888299;29;20300;-78
2023/11/12 06:28:22;;;;;;;11.10;10.30;;;3.60;99.90;;;;;;4876332;29;20279;-77
2023/11/12 06:30:50;;;;;;;11.43;10.63;;;3.60;99.90;;;;;;4882769;29;20221;-77
2023/11/12 06:33:17;;;;;;;10.80;10.10;;;3.60;99.90;;;;;;4884573;29;20208;-78
2023/11/12 06:35:43;;;;;;;11.13;10.37;;;3.60;99.90;;;;;;4885019;29;20218;-78
2023/11/12 06:38:10;;;;;;;11.17;10.37;;;3.60;99.90;;;;;;4891295;29;20221;-79
2023/11/12 06:40:39;;;;;;;11.43;10.63;;;3.60;99.90;;;;;;4896619;29;20274;-77
2023/11/12 06:43:06;;;;;;;12.07;11.17;;;3.60;99.90;;;;;;4896428;29;20207;-78
2023/11/12 06:45:32;;;;;;;13.17;12.17;;;3.60;99.90;;;;;;4893280;29;20260;-77
2023/11/12 06:47:59;;;;;;;12.70;11.80;;;3.50;99.90;;;;;;4891803;29;20268;-77
2023/11/12 06:50:26;;;;;;;12.90;11.90;;;3.50;99.90;;;;;;4891155;29;20216;-78
2023/11/12 06:52:53;;;;;;;12.93;11.93;;;3.40;99.90;;;;;;4896196;29;20257;-79
2023/11/12 06:55:20;;;;;;;13.17;12.17;;;3.50;99.90;;;;;;4890274;29;20713;-77
2023/11/12 06:57:48;;;;;;;12.33;11.53;;;3.50;99.90;;;;;;4895166;29;20229;-78
2023/11/12 07:00:17;;;;;;;13.73;12.73;;;3.50;99.90;;;;;;4896908;29;20690;-78
2023/11/12 07:02:44;;;;;;;13.50;12.50;;;3.50;99.90;;;;;;4894310;29;20207;-77
2023/11/12 07:05:11;;;;;;;12.50;11.60;;;3.50;99.90;;;;;;4890483;29;20575;-78
2023/11/12 07:07:38;;;;;;;12.50;11.50;;;3.60;99.90;;;;;;4889640;29;20228;-78
2023/11/12 07:10:07;;;;;;;12.53;11.63;;;3.60;99.90;;;;;;4892251;29;20222;-78
2023/11/12 07:12:34;;;;;;;11.90;11.13;;;3.60;99.90;;;;;;4893816;29;20211;-77
2023/11/12 07:15:03;;;;;;;12.60;11.80;;;3.60;99.90;;;;;;4893438;29;20244;-78
2023/11/12 07:17:31;;;;;;;13.20;12.20;;;3.70;99.90;;;;;;4897780;29;20228;-79
2023/11/12 07:20:06;;;;;;;12.63;11.73;;;3.80;99.90;;;;;;4896888;29;20570;-78
2023/11/12 07:22:35;;;;;;;12.97;11.77;;;3.80;99.90;;;;;;4884939;29;20299;-79
2023/11/12 07:25:03;;;;;;;12.23;11.43;;;3.90;99.90;;;;;;4879883;29;20845;-82
2023/11/12 07:27:31;;;;;;;13.10;12.20;;;4.00;99.90;;;;;;4883971;29;20229;-82
2023/11/12 07:30:00;;;;;;;12.10;11.30;;;4.00;99.90;;;;;;4885661;29;20232;-81
2023/11/12 07:32:28;;;;;;;12.90;12.10;;;4.10;99.90;;;;;;4877742;29;20241;-79
2023/11/12 07:34:55;;;;;;;13.10;12.10;;;4.10;99.90;;;;;;4890088;29;20226;-81
2023/11/12 07:37:22;;;;;;;12.73;11.80;;;4.10;99.90;;;;;;4893985;29;20266;-81
2023/11/12 07:39:50;;;;;;;13.10;12.20;;;4.10;99.90;;;;;;4886292;29;20209;-81
2023/11/12 07:42:17;;;;;;;11.13;10.37;;;4.10;99.90;;;;;;4885299;29;20213;-79
2023/11/12 07:44:44;;;;;;;12.40;11.50;;;4.20;99.90;;;;;;4883488;29;20200;-78
2023/11/12 07:47:11;;;;;;;11.70;10.90;;;4.20;99.90;;;;;;4883846;29;20668;-78
2023/11/12 07:49:39;;;;;;;13.00;12.10;;;4.30;99.90;;;;;;4882820;29;20274;-78
2023/11/12 07:52:06;;;;;;;13.80;12.83;;;4.40;99.90;;;;;;4879221;29;20210;-77
2023/11/12 07:54:33;;;;;;;12.90;12.00;;;4.40;99.90;;;;;;4883846;29;20201;-80
2023/11/12 07:57:00;;;;;;;12.13;11.33;;;4.40;99.90;;;;;;4870310;29;20214;-83
2023/11/12 07:59:26;;;;;;;12.60;11.70;;;4.40;99.90;;;;;;4868109;29;20226;-78
2023/11/12 08:01:53;;;;;;;12.90;11.90;;;4.50;99.90;;;;;;4873971;29;20216;-78
2023/11/12 08:04:20;;;;;;;13.10;12.10;;;4.40;99.90;;;;;;4881156;29;20209;-77
2023/11/12 08:06:49;;;;;;;15.27;14.07;;;4.40;99.90;;;;;;4882106;29;20252;-77
2023/11/12 08:09:16;;;;;;;15.83;14.53;;;4.50;99.90;;;;;;4878347;29;20313;-78
2023/11/12 08:11:43;;;;;;;13.93;12.80;;;4.50;99.90;;;;;;4883974;29;20568;-77
2023/11/12 08:14:10;;;;;;;12.70;11.80;;;4.60;99.90;;;;;;4879161;29;20206;-78
2023/11/12 08:16:37;;;;;;;12.77;11.97;;;4.50;99.90;;;;;;4878290;29;20235;-79
2023/11/12 08:19:04;;;;;;;12.93;12.03;;;4.60;99.90;;;;;;4883958;29;20208;-80
2023/11/12 08:21:31;;;;;;;13.33;12.43;;;4.60;99.90;;;;;;4875040;29;20254;-81
2023/11/12 08:23:59;;;;;;;16.27;14.97;;;4.70;99.90;;;;;;4878736;29;20202;-79
2023/11/12 08:26:27;;;;;;;19.17;17.50;;;4.80;99.90;;;;;;4880436;29;20222;-80
2023/11/12 08:28:56;;;;;;;18.43;17.03;;;5.00;99.90;;;;;;4878882;29;20305;-81
2023/11/12 08:31:23;;;;;;;17.10;15.60;;;5.10;99.90;;;;;;4881298;29;20225;-80
2023/11/12 08:33:50;;;;;;;14.47;13.47;;;5.10;99.90;;;;;;4875695;29;20198;-78
2023/11/12 08:36:17;;;;;;;13.20;12.20;;;5.20;99.90;;;;;;4878379;29;20232;-80
2023/11/12 08:38:44;;;;;;;14.07;12.97;;;5.20;99.90;;;;;;4881460;29;20220;-82
2023/11/12 08:41:19;;;;;;;14.47;13.27;;;5.20;99.90;;;;;;4879013;29;20206;-83
2023/11/12 08:43:46;;;;;;;14.07;13.00;;;5.30;99.90;;;;;;4878294;29;20670;-82
2023/11/12 08:46:17;;;;;;;14.30;13.30;;;5.30;99.90;;;;;;4880296;29;20679;-80
2023/11/12 08:48:44;;;;;;;15.27;14.03;;;5.30;99.90;;;;;;4880056;29;20278;-77
2023/11/12 08:51:11;;;;;;;14.23;13.03;;;5.40;99.90;;;;;;4875206;29;20214;-78
2023/11/12 08:53:39;;;;;;;13.70;12.60;;;5.40;99.90;;;;;;4877194;29;20205;-78
2023/11/12 08:56:07;;;;;;;13.30;12.40;;;5.40;99.90;;;;;;4874261;29;20237;-77
2023/11/12 08:58:35;;;;;;;14.07;12.97;;;5.40;99.90;;;;;;4892624;29;20210;-77
2023/11/12 09:01:08;;;;;;;12.63;11.83;;;5.40;99.90;;;;;;4882232;29;20219;-78
2023/11/12 09:03:35;;;;;;;12.60;11.80;;;5.50;99.90;;;;;;4877359;29;20228;-77
2023/11/12 09:06:02;;;;;;;13.30;12.30;;;5.60;99.90;;;;;;4885942;29;20249;-78
2023/11/12 09:08:29;;;;;;;12.57;11.70;;;5.70;99.90;;;;;;4885754;29;20202;-77
2023/11/12 09:10:56;;;;;;;13.50;12.50;;;5.80;99.90;;;;;;4884288;29;20288;-77
2023/11/12 09:13:23;;;;;;;13.87;12.87;;;5.80;99.90;;;;;;4890089;29;20216;-77
2023/11/12 09:15:51;;;;;;;14.03;12.93;;;5.80;99.90;;;;;;4884185;29;20271;-77
2023/11/12 09:18:19;;;;;;;14.20;13.20;;;5.80;99.90;;;;;;4876923;29;20236;-76
2023/11/12 09:20:46;;;;;;;14.77;13.67;;;5.80;99.90;;;;;;4882252;29;20230;-78
2023/11/12 09:23:13;;;;;;;16.17;14.87;;;5.90;99.90;;;;;;4887216;29;20207;-77
2023/11/12 09:25:41;;;;;;;15.57;14.23;;;5.90;99.90;;;;;;4882711;29;20251;-77
2023/11/12 09:28:08;;;;;;;15.07;13.97;;;6.00;99.90;;;;;;4881382;29;20227;-77
2023/11/12 09:30:36;;;;;;;14.03;13.03;;;6.00;99.90;;;;;;4867305;29;20300;-77
2023/11/12 09:33:06;;;;;;;14.97;13.87;;;6.10;99.90;;;;;;4881015;29;20207;-76
2023/11/12 09:35:33;;;;;;;13.97;12.97;;;6.20;99.90;;;;;;4886032;29;20204;-76
2023/11/12 09:37:59;;;;;;;13.90;12.80;;;6.20;99.90;;;;;;4882373;29;20224;-78
2023/11/12 09:40:29;;;;;;;14.30;13.20;;;6.30;99.90;;;;;;4882853;29;20205;-77
2023/11/12 09:42:56;;;;;;;13.70;12.67;;;6.40;99.90;;;;;;4880146;29;20228;-77
2023/11/12 09:45:24;;;;;;;13.63;12.63;;;6.50;99.90;;;;;;4878941;29;20302;-77
2023/11/12 09:48:09;;;;;;;13.90;12.80;;;6.60;99.90;;;;;;4883569;29;20660;-77
2023/11/12 09:50:37;;;;;;;12.87;11.90;;;6.70;99.90;;;;;;4878753;29;20217;-77
2023/11/12 09:53:04;;;;;;;13.60;12.70;;;6.80;99.90;;;;;;4878968;29;20212;-76
2023/11/12 09:55:31;;;;;;;13.57;12.57;;;6.80;99.90;;;;;;4879460;29;20223;-76
2023/11/12 09:58:01;;;;;;;13.90;12.90;;;6.80;99.90;;;;;;4880236;29;20307;-76
2023/11/12 10:00:28;;;;;;;13.03;12.10;;;6.80;99.90;;;;;;4873720;29;20318;-77
2023/11/12 10:02:56;;;;;;;13.20;12.30;;;6.80;99.90;;;;;;4885079;29;20204;-76
2023/11/12 10:05:25;;;;;;;13.37;12.30;;;6.80;99.90;;;;;;4880387;29;20205;-76
2023/11/12 10:07:53;;;;;;;13.90;13.00;;;6.70;99.90;;;;;;4884021;29;20745;-78
2023/11/12 10:10:24;;;;;;;13.17;12.27;;;6.70;99.90;;;;;;4878523;29;20217;-76
2023/11/12 10:12:52;;;;;;;12.87;11.83;;;6.70;99.90;;;;;;4880656;29;20274;-76
2023/11/12 10:15:24;;;;;;;12.80;11.90;;;6.70;99.90;;;;;;4882368;29;20211;-76
2023/11/12 10:17:51;;;;;;;13.07;12.17;;;6.70;99.90;;;;;;4879571;29;20728;-76
2023/11/12 10:20:22;;;;;;;12.60;11.77;;;6.80;99.90;;;;;;4880950;29;20269;-77
2023/11/12 10:22:51;;;;;;;12.47;11.57;;;6.90;99.90;;;;;;4881290;29;20204;-81
2023/11/12 10:25:37;;;;;;;13.23;12.33;;;6.90;99.90;;;;;;4890787;29;20209;-81
2023/11/12 10:28:06;;;;;;;12.57;11.77;;;7.00;99.90;;;;;;4882288;29;20228;-79
2023/11/12 10:30:33;;;;;;;12.73;11.73;;;7.00;99.90;;;;;;4878412;29;20221;-81
2023/11/12 10:33:16;;;;;;;12.50;11.70;;;7.00;99.90;;;;;;4873463;29;20209;-79
2023/11/12 10:38:52;;;;;;;11.90;11.10;;;7.10;99.90;;;;;;4834390;29;20250;-80
2023/11/12 10:41:19;;;;;;;11.87;11.07;;;7.20;99.90;;;;;;4825248;29;20207;-77
2023/11/12 10:43:59;;;;;;;13.00;12.20;;;7.20;99.90;;;;;;4824190;29;20250;-77
2023/11/12 10:46:26;;;;;;;12.63;11.73;;;7.20;99.90;;;;;;4817452;29;20724;-76
2023/11/12 10:48:55;;;;;;;13.53;12.47;;;7.20;99.90;;;;;;4799014;29;20247;-78
2023/11/12 10:51:23;;;;;;;12.90;12.10;;;7.20;99.90;;;;;;4821346;29;20233;-78
2023/11/12 10:53:56;;;;;;;12.40;11.60;;;7.20;99.90;;;;;;4806975;29;20200;-77
2023/11/12 10:56:23;;;;;;;12.10;11.30;;;7.30;99.90;;;;;;4807958;29;20228;-78
2023/11/12 10:58:54;;;;;;;12.63;11.73;;;7.30;99.90;;;;;;4807877;29;20655;-77
2023/11/12 11:01:21;;;;;;;12.80;11.80;;;7.40;99.90;;;;;;4808254;29;20264;-77
2023/11/12 11:03:51;;;;;;;13.10;12.13;;;7.40;99.90;;;;;;4806914;29;20204;-77
2023/11/12 11:06:19;;;;;;;13.60;12.40;;;7.40;99.90;;;;;;4806131;29;20238;-79
2023/11/12 11:08:46;;;;;;;13.10;12.20;;;7.40;99.90;;;;;;4803543;29;20212;-77
2023/11/12 11:11:14;;;;;;;13.70;12.80;;;7.40;99.90;;;;;;4809418;29;20239;-77
2023/11/12 11:13:41;;;;;;;14.00;13.00;;;7.50;99.90;;;;;;4818703;29;20200;-78
2023/11/12 11:16:09;;;;;;;13.23;12.37;;;7.50;99.90;;;;;;4830570;29;20264;-77
2023/11/12 11:18:53;;;;;;;13.30;12.30;;;7.50;99.90;;;;;;4836421;29;20215;-77
2023/11/12 11:21:21;;;;;;;13.30;12.40;;;7.60;99.90;;;;;;4819114;29;20294;-77
2023/11/12 11:23:53;;;;;;;12.60;11.80;;;7.60;99.90;;;;;;4806440;29;20215;-76
2023/11/12 11:26:32;;;;;;;12.67;11.77;;;7.70;99.90;;;;;;4813446;29;20226;-77
2023/11/12 11:29:16;;;;;;;12.63;11.60;;;7.80;99.90;;;;;;4813172;29;20207;-77
2023/11/12 11:32:17;;;;;;;11.53;10.73;;;7.80;99.90;;;;;;4829994;29;20233;-78
2023/11/12 11:34:45;;;;;;;12.30;11.40;;;7.90;99.90;;;;;;4820814;29;20223;-77
2023/11/12 11:37:13;;;;;;;11.77;11.03;;;7.90;99.90;;;;;;4817362;29;20236;-77
2023/11/12 11:39:40;;;;;;;11.90;11.10;;;8.00;99.90;;;;;;4820130;29;20196;-77
2023/11/12 11:42:17;;;;;;;11.03;10.33;;;8.10;99.90;;;;;;4820643;29;20263;-77
2023/11/12 11:44:45;;;;;;;11.53;10.73;;;8.20;99.90;;;;;;4835395;29;20215;-78
2023/11/12 11:47:26;;;;;;;11.83;11.03;;;8.30;99.90;;;;;;4814606;29;20239;-84
2023/11/12 11:53:43;;;;;;;10.40;9.70;;;8.50;99.90;;;;;;4807059;29;20261;-82
2023/11/12 11:56:14;;;;;;;10.60;10.00;;;8.70;99.90;;;;;;4816498;29;20241;-77
2023/11/12 11:58:50;;;;;;;10.70;10.03;;;8.90;99.90;;;;;;4819997;29;20271;-76
2023/11/12 12:01:17;;;;;;;10.40;9.80;;;9.00;99.90;;;;;;4813054;29;20239;-77
2023/11/12 12:03:44;;;;;;;10.57;9.87;;;9.00;99.90;;;;;;4818769;29;20219;-78
2023/11/12 12:06:17;;;;;;;10.70;9.97;;;9.00;99.90;;;;;;4828389;29;20679;-77
2023/11/12 12:08:51;;;;;;;10.50;9.80;;;9.00;99.90;;;;;;4818316;29;20984;-78
2023/11/12 12:11:18;;;;;;;10.43;9.73;;;9.00;99.90;;;;;;4817395;29;20347;-78
2023/11/12 12:13:58;;;;;;;10.13;9.43;;;9.00;99.90;;;;;;4820851;29;20593;-78
2023/11/12 12:16:26;;;;;;;10.13;9.50;;;8.90;99.90;;;;;;4820138;29;20223;-78
2023/11/12 12:18:54;;;;;;;10.17;9.50;;;8.90;99.90;;;;;;4817896;29;20607;-78
2023/11/12 12:21:21;;;;;;;10.57;9.80;;;8.90;99.90;;;;;;4815913;29;20233;-77
2023/11/12 12:23:48;;;;;;;10.50;9.80;;;8.90;99.90;;;;;;4813476;29;20215;-78
2023/11/12 12:26:15;;;;;;;10.40;9.70;;;9.00;99.90;;;;;;4834258;29;20247;-81
2023/11/12 12:28:42;;;;;;;10.43;9.70;;;9.00;99.90;;;;;;4813683;29;20705;-80
2023/11/12 12:31:11;;;;;;;11.27;10.47;;;9.10;99.90;;;;;;4814805;29;20781;-79
2023/11/12 12:33:38;;;;;;;10.47;9.77;;;9.10;99.90;;;;;;4821080;29;20329;-79
2023/11/12 12:36:10;;;;;;;11.23;10.47;;;9.10;99.90;;;;;;4816080;29;20211;-80
2023/11/12 12:38:38;;;;;;;11.00;10.20;;;9.10;99.90;;;;;;4816515;29;20223;-79
2023/11/12 12:41:05;;;;;;;11.10;10.30;;;9.10;99.90;;;;;;4827062;29;20678;-79
2023/11/12 12:43:49;;;;;;;11.27;10.47;;;9.10;99.90;;;;;;4807071;29;20231;-81
2023/11/12 12:46:18;;;;;;;10.50;9.80;;;9.00;99.90;;;;;;4813311;29;20227;-78
2023/11/12 12:48:53;;;;;;;10.73;9.93;;;9.00;99.90;;;;;;4807061;29;20767;-80
2023/11/12 12:51:21;;;;;;;10.40;9.80;;;9.00;99.90;;;;;;4813850;29;20230;-79
2023/11/12 12:53:48;;;;;;;10.43;9.83;;;9.00;99.90;;;;;;4805508;29;20253;-79
2023/11/12 12:56:16;;;;;;;11.00;10.30;;;9.00;99.90;;;;;;4805982;29;20228;-80